Time;durP1;ratioP1;P1;durP2;ratioP2;P2;SDS_P1;SDS_P2;PMS_P1;PMS_P2;Temp;Humidity;BMP_temperature;BMP_pressure;BME280_temperature;BME280_humidity;BME280_pressure;Samples;Min_cycle;Max_cycle;Signal;HPM_P1;HPM_P2
2022/04/01 00:00:21;;;;;;;4.30;1.80;;;;;;;;;;4951529;28;20101;-65
2022/04/01 00:02:47;;;;;;;3.08;1.63;;;;;;;;;;4950884;28;20516;-64
2022/04/01 00:05:12;;;;;;;3.67;1.73;;;;;;;;;;4951364;28;20124;-64
2022/04/01 00:07:40;;;;;;;3.17;1.85;;;;;;;;;;4950713;28;20429;-64
2022/04/01 00:10:07;;;;;;;3.83;1.67;;;;;;;;;;4951456;28;20400;-64
2022/04/01 00:12:32;;;;;;;4.55;1.83;;;;;;;;;;4952187;28;20429;-65
2022/04/01 00:14:57;;;;;;;2.78;1.55;;;;;;;;;;4951929;28;20473;-65
2022/04/01 00:17:23;;;;;;;4.43;1.90;;;;;;;;;;4951099;28;20179;-65
2022/04/01 00:19:48;;;;;;;1.77;1.50;;;;;;;;;;4951552;28;20311;-65
2022/04/01 00:22:13;;;;;;;4.18;1.58;;;;;;;;;;4950999;28;20034;-65
2022/04/01 00:24:39;;;;;;;2.70;1.38;;;;;;;;;;4951927;28;20473;-64
2022/04/01 00:27:04;;;;;;;4.68;2.30;;;;;;;;;;4951366;28;20524;-66
2022/04/01 00:29:30;;;;;;;5.25;1.70;;;;;;;;;;4950854;28;20530;-65
2022/04/01 00:31:59;;;;;;;5.50;1.80;;;;;;;;;;4952156;28;20524;-65
2022/04/01 00:34:29;;;;;;;4.85;1.70;;;;;;;;;;4949687;28;20464;-65
2022/04/01 00:36:56;;;;;;;3.03;1.50;;;;;;;;;;4951212;28;20116;-64
2022/04/01 00:39:23;;;;;;;3.75;1.60;;;;;;;;;;4950508;28;20088;-65
2022/04/01 00:41:49;;;;;;;3.10;1.83;;;;;;;;;;4950672;28;20460;-65
2022/04/01 00:44:23;;;;;;;2.55;1.40;;;;;;;;;;4950048;28;20389;-65
2022/04/01 00:46:57;;;;;;;2.58;1.48;;;;;;;;;;4949253;28;20339;-64
2022/04/01 00:49:24;;;;;;;3.22;1.48;;;;;;;;;;4951222;28;20511;-65
2022/04/01 00:51:51;;;;;;;2.92;1.55;;;;;;;;;;4950483;28;20037;-65
2022/04/01 00:54:17;;;;;;;2.15;1.17;;;;;;;;;;4950798;28;20380;-65
2022/04/01 00:56:43;;;;;;;2.70;1.67;;;;;;;;;;4950686;28;20092;-65
2022/04/01 00:59:09;;;;;;;2.15;1.55;;;;;;;;;;4950739;28;20421;-65
2022/04/01 01:01:35;;;;;;;2.45;1.23;;;;;;;;;;4942223;28;20432;-65
2022/04/01 01:04:05;;;;;;;4.03;1.67;;;;;;;;;;4931170;28;20136;-65
2022/04/01 01:06:31;;;;;;;2.17;1.00;;;;;;;;;;4930779;28;20517;-65
2022/04/01 01:08:58;;;;;;;4.60;1.33;;;;;;;;;;4930215;28;20394;-65
2022/04/01 01:11:25;;;;;;;2.63;1.33;;;;;;;;;;4930828;28;20366;-66
2022/04/01 01:13:51;;;;;;;3.15;1.60;;;;;;;;;;4929164;28;20022;-66
2022/04/01 01:16:16;;;;;;;2.55;1.55;;;;;;;;;;4931043;28;20454;-65
2022/04/01 01:18:42;;;;;;;2.40;1.40;;;;;;;;;;4932660;28;20328;-65
2022/04/01 01:21:09;;;;;;;2.50;1.42;;;;;;;;;;4931135;28;20439;-65
2022/04/01 01:23:35;;;;;;;3.30;1.40;;;;;;;;;;4930639;28;20436;-65
2022/04/01 01:26:01;;;;;;;4.85;1.83;;;;;;;;;;4931681;28;20426;-65
2022/04/01 01:28:27;;;;;;;2.25;1.55;;;;;;;;;;4928904;28;20307;-65
2022/04/01 01:30:52;;;;;;;2.00;1.20;;;;;;;;;;4929258;28;20528;-65
2022/04/01 01:33:21;;;;;;;2.80;1.60;;;;;;;;;;4931585;28;20322;-64
2022/04/01 01:35:47;;;;;;;1.83;1.02;;;;;;;;;;4929092;28;20453;-65
2022/04/01 01:38:17;;;;;;;3.63;1.35;;;;;;;;;;4931225;28;20485;-65
2022/04/01 01:40:42;;;;;;;3.08;1.58;;;;;;;;;;4930444;28;20070;-64
2022/04/01 01:43:07;;;;;;;1.60;1.20;;;;;;;;;;4929610;28;20057;-65
2022/04/01 01:45:33;;;;;;;4.30;1.35;;;;;;;;;;4930502;28;20447;-65
2022/04/01 01:47:58;;;;;;;1.75;1.10;;;;;;;;;;4930680;28;20602;-65
2022/04/01 01:55:51;;;;;;;1.85;1.30;;;;;;;;;;4930949;28;20356;-65
2022/04/01 01:58:16;;;;;;;2.38;1.35;;;;;;;;;;4930050;28;20337;-64
2022/04/01 02:00:42;;;;;;;1.90;1.10;;;;;;;;;;4929011;28;20030;-65
2022/04/01 02:03:10;;;;;;;1.55;1.27;;;;;;;;;;4930341;28;20375;-65
2022/04/01 02:05:35;;;;;;;2.45;1.30;;;;;;;;;;4930136;28;20497;-65
2022/04/01 02:08:01;;;;;;;1.85;1.23;;;;;;;;;;4931701;28;20393;-65
2022/04/01 02:10:26;;;;;;;2.45;1.40;;;;;;;;;;4930147;28;20443;-65
2022/04/01 02:12:52;;;;;;;1.80;1.20;;;;;;;;;;4929922;28;20460;-65
2022/04/01 02:15:17;;;;;;;2.45;1.27;;;;;;;;;;4930595;28;20035;-64
2022/04/01 02:17:43;;;;;;;3.67;1.85;;;;;;;;;;4929716;28;20446;-65
2022/04/01 02:20:11;;;;;;;2.30;1.23;;;;;;;;;;4931411;28;20405;-65
2022/04/01 02:22:37;;;;;;;2.80;1.65;;;;;;;;;;4934715;28;20415;-65
2022/04/01 02:25:07;;;;;;;2.03;1.40;;;;;;;;;;4934028;28;20398;-65
2022/04/01 02:27:33;;;;;;;1.95;1.40;;;;;;;;;;4933787;28;20366;-65
2022/04/01 02:29:58;;;;;;;1.83;1.20;;;;;;;;;;4934734;28;20335;-65
2022/04/01 02:32:25;;;;;;;3.25;1.33;;;;;;;;;;4933612;28;20399;-65
2022/04/01 02:34:50;;;;;;;1.45;1.00;;;;;;;;;;4933919;28;20520;-64
2022/04/01 02:37:17;;;;;;;2.75;1.40;;;;;;;;;;4932323;28;20426;-65
2022/04/01 02:39:43;;;;;;;2.80;1.52;;;;;;;;;;4934652;28;20523;-67
2022/04/01 02:42:09;;;;;;;2.33;1.15;;;;;;;;;;4933799;28;20507;-65
2022/04/01 02:44:34;;;;;;;2.00;1.50;;;;;;;;;;4934032;28;20512;-65
2022/04/01 02:46:59;;;;;;;1.58;1.10;;;;;;;;;;4935254;28;20338;-65
2022/04/01 02:49:24;;;;;;;2.45;1.10;;;;;;;;;;4933519;28;20113;-65
2022/04/01 02:51:53;;;;;;;2.08;1.02;;;;;;;;;;4933758;28;20500;-65
2022/04/01 02:54:20;;;;;;;2.47;1.20;;;;;;;;;;4933256;28;20034;-65
2022/04/01 02:56:46;;;;;;;1.67;1.30;;;;;;;;;;4933812;28;20477;-64
2022/04/01 02:59:12;;;;;;;2.03;1.17;;;;;;;;;;4931825;28;20487;-65
2022/04/01 03:01:40;;;;;;;2.65;1.00;;;;;;;;;;4933411;28;20322;-64
2022/04/01 03:04:09;;;;;;;2.28;1.35;;;;;;;;;;4934501;28;20353;-65
2022/04/01 03:06:38;;;;;;;2.22;1.15;;;;;;;;;;4933414;28;20437;-65
2022/04/01 03:09:05;;;;;;;2.50;1.10;;;;;;;;;;4933400;28;20346;-65
2022/04/01 03:11:30;;;;;;;2.90;1.08;;;;;;;;;;4933359;28;20397;-65
2022/04/01 03:13:57;;;;;;;3.25;1.50;;;;;;;;;;4933155;28;20397;-65
2022/04/01 03:16:22;;;;;;;1.50;0.90;;;;;;;;;;4933395;28;20347;-65
2022/04/01 03:18:48;;;;;;;1.48;1.13;;;;;;;;;;4933098;28;20338;-65
2022/04/01 03:21:13;;;;;;;1.33;1.00;;;;;;;;;;4932880;28;20333;-64
2022/04/01 03:23:40;;;;;;;1.42;1.10;;;;;;;;;;4933008;28;20496;-65
2022/04/01 03:26:06;;;;;;;1.67;1.00;;;;;;;;;;4934187;28;20382;-65
2022/04/01 03:28:33;;;;;;;1.17;1.08;;;;;;;;;;4932894;28;20435;-65
2022/04/01 03:30:59;;;;;;;2.67;1.70;;;;;;;;;;4932782;28;20381;-65
2022/04/01 03:33:25;;;;;;;1.73;1.50;;;;;;;;;;4932234;28;20026;-66
2022/04/01 03:35:50;;;;;;;2.05;1.38;;;;;;;;;;4932941;28;20509;-65
2022/04/01 03:38:16;;;;;;;2.20;1.55;;;;;;;;;;4933523;28;20457;-65
2022/04/01 03:40:41;;;;;;;2.10;1.48;;;;;;;;;;4932833;28;20049;-65
2022/04/01 03:43:07;;;;;;;1.48;1.20;;;;;;;;;;4932609;28;20410;-65
2022/04/01 03:45:34;;;;;;;2.85;1.40;;;;;;;;;;4933413;28;20398;-64
2022/04/01 03:48:04;;;;;;;2.35;1.60;;;;;;;;;;4933268;28;20052;-65
2022/04/01 03:50:32;;;;;;;2.90;1.40;;;;;;;;;;4931246;28;20061;-65
2022/04/01 03:53:04;;;;;;;1.58;1.15;;;;;;;;;;4932511;28;20402;-65
2022/04/01 03:55:36;;;;;;;2.13;1.30;;;;;;;;;;4931987;28;20450;-65
2022/04/01 03:58:07;;;;;;;3.00;1.33;;;;;;;;;;4932244;28;20540;-64
2022/04/01 04:00:32;;;;;;;1.80;1.30;;;;;;;;;;4932161;28;20034;-65
2022/04/01 04:02:58;;;;;;;2.30;1.10;;;;;;;;;;4932451;28;20627;-65
2022/04/01 04:05:24;;;;;;;2.97;1.42;;;;;;;;;;4932014;28;20473;-65
2022/04/01 04:07:51;;;;;;;2.60;1.88;;;;;;;;;;4931353;28;20318;-65
2022/04/01 04:10:17;;;;;;;2.55;1.83;;;;;;;;;;4932188;28;20418;-65
2022/04/01 04:12:43;;;;;;;1.67;1.27;;;;;;;;;;4932241;28;20397;-64
2022/04/01 04:15:09;;;;;;;2.88;1.80;;;;;;;;;;4932305;28;20365;-65
2022/04/01 04:17:45;;;;;;;2.70;1.52;;;;;;;;;;4931951;28;20500;-65
2022/04/01 04:20:18;;;;;;;3.22;1.83;;;;;;;;;;4931766;28;20407;-65
2022/04/01 04:23:06;;;;;;;2.88;1.75;;;;;;;;;;4930373;28;20407;-65
2022/04/01 04:25:36;;;;;;;2.13;1.60;;;;;;;;;;4931794;28;20038;-65
2022/04/01 04:28:07;;;;;;;2.72;1.65;;;;;;;;;;4931615;28;20421;-64
2022/04/01 04:30:54;;;;;;;4.20;1.63;;;;;;;;;;4931956;28;20034;-65
2022/04/01 04:33:22;;;;;;;3.10;1.63;;;;;;;;;;4931916;28;20030;-65
2022/04/01 04:35:49;;;;;;;2.17;1.45;;;;;;;;;;4931505;28;20324;-65
2022/04/01 04:38:20;;;;;;;1.67;1.42;;;;;;;;;;4931653;28;20438;-65
2022/04/01 04:40:46;;;;;;;1.95;1.17;;;;;;;;;;4932505;28;20397;-65
2022/04/01 04:43:13;;;;;;;2.25;1.50;;;;;;;;;;4931029;28;20405;-65
2022/04/01 04:45:38;;;;;;;2.75;1.30;;;;;;;;;;4932013;28;20026;-65
2022/04/01 04:48:05;;;;;;;2.45;1.30;;;;;;;;;;4932397;28;20486;-65
2022/04/01 04:50:31;;;;;;;2.05;1.20;;;;;;;;;;4929561;28;20560;-65
2022/04/01 04:52:56;;;;;;;2.33;1.40;;;;;;;;;;4929972;28;20385;-65
2022/04/01 04:55:22;;;;;;;2.33;1.50;;;;;;;;;;4931086;28;20024;-68
2022/04/01 04:57:50;;;;;;;2.33;1.40;;;;;;;;;;4932566;28;20550;-65
2022/04/01 05:00:19;;;;;;;1.75;1.25;;;;;;;;;;4931006;28;20365;-65
2022/04/01 05:03:09;;;;;;;3.92;1.33;;;;;;;;;;4932098;28;20425;-65
2022/04/01 05:05:45;;;;;;;2.03;1.40;;;;;;;;;;4930810;28;20445;-65
2022/04/01 05:08:27;;;;;;;2.33;1.40;;;;;;;;;;4929790;28;20341;-65
2022/04/01 05:11:01;;;;;;;1.67;1.23;;;;;;;;;;4930261;28;20429;-66
2022/04/01 05:13:45;;;;;;;2.08;1.40;;;;;;;;;;4931144;28;20091;-64
2022/04/01 05:16:26;;;;;;;2.17;1.40;;;;;;;;;;4930676;28;20026;-64
2022/04/01 05:19:02;;;;;;;1.60;1.17;;;;;;;;;;4929537;28;20054;-66
2022/04/01 05:21:44;;;;;;;1.23;1.10;;;;;;;;;;4930802;28;20497;-65
2022/04/01 05:24:12;;;;;;;2.55;1.70;;;;;;;;;;4929213;28;20362;-64
2022/04/01 05:26:41;;;;;;;2.42;1.40;;;;;;;;;;4931148;28;20550;-65
2022/04/01 05:29:27;;;;;;;1.75;1.45;;;;;;;;;;4930670;28;20030;-65
2022/04/01 05:32:05;;;;;;;2.75;1.30;;;;;;;;;;4930658;28;20427;-65
2022/04/01 05:34:40;;;;;;;2.22;1.38;;;;;;;;;;4931344;28;20347;-64
2022/04/01 05:37:06;;;;;;;1.90;1.40;;;;;;;;;;4930653;28;20450;-65
2022/04/01 05:39:34;;;;;;;3.17;1.40;;;;;;;;;;4930766;28;20523;-65
2022/04/01 05:42:00;;;;;;;1.77;1.38;;;;;;;;;;4930109;28;20461;-65
2022/04/01 05:44:25;;;;;;;1.70;1.40;;;;;;;;;;4929905;28;20381;-64
2022/04/01 05:46:51;;;;;;;2.47;1.42;;;;;;;;;;4930408;28;20333;-65
2022/04/01 05:49:18;;;;;;;1.73;1.20;;;;;;;;;;4930268;28;20101;-65
2022/04/01 05:51:46;;;;;;;1.85;1.30;;;;;;;;;;4929881;28;20426;-65
2022/04/01 05:54:12;;;;;;;2.97;1.63;;;;;;;;;;4929875;28;20342;-64
2022/04/01 05:56:38;;;;;;;2.40;1.20;;;;;;;;;;4928453;28;20084;-65
2022/04/01 05:59:04;;;;;;;2.47;1.58;;;;;;;;;;4928694;28;20335;-65
2022/04/01 06:01:45;;;;;;;2.20;1.30;;;;;;;;;;4930417;28;20341;-64
2022/04/01 06:04:29;;;;;;;1.98;1.42;;;;;;;;;;4930108;28;20468;-65
2022/04/01 06:07:04;;;;;;;1.80;1.10;;;;;;;;;;4930352;28;20057;-64
2022/04/01 06:09:50;;;;;;;2.67;1.70;;;;;;;;;;4931308;28;20460;-64
2022/04/01 06:12:33;;;;;;;1.95;1.30;;;;;;;;;;4930754;28;20321;-65
2022/04/01 06:15:26;;;;;;;2.33;1.67;;;;;;;;;;4928904;28;20342;-65
2022/04/01 06:18:20;;;;;;;2.08;1.38;;;;;;;;;;4930610;28;20453;-65
2022/04/01 06:20:47;;;;;;;2.88;1.65;;;;;;;;;;4930058;28;20477;-65
2022/04/01 06:23:24;;;;;;;3.40;1.30;;;;;;;;;;4930239;28;20374;-64
2022/04/01 06:25:57;;;;;;;3.08;1.73;;;;;;;;;;4928283;28;20084;-64
2022/04/01 06:28:26;;;;;;;1.55;1.45;;;;;;;;;;4928817;28;20473;-66
2022/04/01 06:30:59;;;;;;;2.80;1.75;;;;;;;;;;4930363;28;20030;-65
2022/04/01 06:33:33;;;;;;;2.05;1.52;;;;;;;;;;4930075;28;20322;-64
2022/04/01 06:36:08;;;;;;;3.58;1.58;;;;;;;;;;4929290;28;20473;-65
2022/04/01 06:38:55;;;;;;;2.63;1.67;;;;;;;;;;4930149;28;20418;-65
2022/04/01 06:41:29;;;;;;;1.23;1.10;;;;;;;;;;4930086;28;20503;-65
2022/04/01 06:43:54;;;;;;;2.60;1.67;;;;;;;;;;4929706;28;20446;-65
2022/04/01 06:46:20;;;;;;;3.13;1.52;;;;;;;;;;4930692;28;20303;-64
2022/04/01 06:48:45;;;;;;;2.63;1.73;;;;;;;;;;4930714;28;20445;-64
2022/04/01 06:51:12;;;;;;;1.70;1.33;;;;;;;;;;4929805;28;20350;-65
2022/04/01 06:53:37;;;;;;;2.15;1.60;;;;;;;;;;4931013;28;20326;-64
2022/04/01 06:56:03;;;;;;;2.30;1.70;;;;;;;;;;4929795;28;20050;-65
2022/04/01 06:58:30;;;;;;;1.90;1.58;;;;;;;;;;4930013;28;20343;-65
2022/04/01 07:00:55;;;;;;;2.92;1.92;;;;;;;;;;4930636;28;20030;-65
2022/04/01 07:03:21;;;;;;;1.85;1.65;;;;;;;;;;4929908;28;20045;-65
2022/04/01 07:05:47;;;;;;;1.77;1.52;;;;;;;;;;4929741;28;20460;-64
2022/04/01 07:08:12;;;;;;;2.97;2.00;;;;;;;;;;4933276;28;20477;-64
2022/04/01 07:10:39;;;;;;;3.33;1.98;;;;;;;;;;4933072;28;20477;-65
2022/04/01 07:13:04;;;;;;;2.33;2.10;;;;;;;;;;4933151;28;20458;-65
2022/04/01 07:15:30;;;;;;;2.05;1.55;;;;;;;;;;4934553;28;20414;-65
2022/04/01 07:17:56;;;;;;;2.90;1.90;;;;;;;;;;4933669;28;20361;-66
2022/04/01 07:20:21;;;;;;;2.35;1.83;;;;;;;;;;4932985;28;20513;-64
2022/04/01 07:22:47;;;;;;;2.60;1.75;;;;;;;;;;4933275;28;20337;-65
2022/04/01 07:25:12;;;;;;;4.75;1.88;;;;;;;;;;4932783;28;20461;-64
2022/04/01 07:27:38;;;;;;;3.90;2.50;;;;;;;;;;4932630;28;20520;-64
2022/04/01 07:30:08;;;;;;;2.60;1.85;;;;;;;;;;4932676;28;20520;-64
2022/04/01 07:32:34;;;;;;;4.72;2.40;;;;;;;;;;4933374;28;20322;-64
2022/04/01 07:35:02;;;;;;;4.30;2.60;;;;;;;;;;4932893;28;20373;-64
2022/04/01 07:37:29;;;;;;;5.97;2.20;;;;;;;;;;4932333;28;20541;-65
2022/04/01 07:39:57;;;;;;;2.80;2.00;;;;;;;;;;4932597;28;20433;-65
2022/04/01 07:42:22;;;;;;;3.70;2.10;;;;;;;;;;4932414;28;20042;-65
2022/04/01 07:44:49;;;;;;;5.25;2.25;;;;;;;;;;4932326;28;20069;-65
2022/04/01 07:47:14;;;;;;;3.30;2.10;;;;;;;;;;4932374;28;20419;-65
2022/04/01 07:49:40;;;;;;;3.53;2.03;;;;;;;;;;4933298;28;20472;-65
2022/04/01 07:52:09;;;;;;;3.33;1.88;;;;;;;;;;4932430;28;20496;-65
2022/04/01 07:54:36;;;;;;;3.83;2.03;;;;;;;;;;4933374;28;20385;-65
2022/04/01 07:57:02;;;;;;;3.65;2.42;;;;;;;;;;4932454;28;20034;-65
2022/04/01 07:59:27;;;;;;;3.55;2.40;;;;;;;;;;4932736;28;20465;-65
2022/04/01 08:01:53;;;;;;;4.28;2.40;;;;;;;;;;4932496;28;20458;-65
2022/04/01 08:04:18;;;;;;;3.22;2.22;;;;;;;;;;4932366;28;20440;-65
2022/04/01 08:06:43;;;;;;;4.15;2.45;;;;;;;;;;4932023;28;20338;-64
2022/04/01 08:09:09;;;;;;;6.18;2.60;;;;;;;;;;4933060;28;20449;-64
2022/04/01 08:11:34;;;;;;;4.63;3.03;;;;;;;;;;4932944;28;20454;-64
2022/04/01 08:14:00;;;;;;;4.57;2.47;;;;;;;;;;4933104;28;20496;-65
2022/04/01 08:16:25;;;;;;;4.47;2.80;;;;;;;;;;4931848;28;20026;-64
2022/04/01 08:18:51;;;;;;;6.90;2.70;;;;;;;;;;4932229;28;20414;-64
2022/04/01 08:21:17;;;;;;;6.15;3.33;;;;;;;;;;4932357;28;20422;-64
2022/04/01 08:23:43;;;;;;;4.50;2.70;;;;;;;;;;4932061;28;20372;-64
2022/04/01 08:26:08;;;;;;;6.65;2.78;;;;;;;;;;4932525;28;20335;-65
2022/04/01 08:28:35;;;;;;;4.93;3.03;;;;;;;;;;4932269;28;20497;-64
2022/04/01 08:31:01;;;;;;;4.65;2.83;;;;;;;;;;4932759;28;20022;-65
2022/04/01 08:33:27;;;;;;;6.40;2.67;;;;;;;;;;4931913;28;20449;-65
2022/04/01 08:35:52;;;;;;;6.30;2.88;;;;;;;;;;4932364;28;20502;-65
2022/04/01 08:38:18;;;;;;;5.28;2.90;;;;;;;;;;4932314;28;20381;-65
2022/04/01 08:40:43;;;;;;;6.60;3.13;;;;;;;;;;4931714;28;20390;-65
2022/04/01 08:43:09;;;;;;;6.35;3.20;;;;;;;;;;4930553;28;20370;-65
2022/04/01 08:45:37;;;;;;;5.28;3.35;;;;;;;;;;4931236;28;20462;-65
2022/04/01 08:48:09;;;;;;;6.00;3.47;;;;;;;;;;4931435;28;20326;-65
2022/04/01 08:50:34;;;;;;;5.90;3.65;;;;;;;;;;4931143;28;20434;-64
2022/04/01 08:53:00;;;;;;;8.70;3.33;;;;;;;;;;4931208;28;20468;-64
2022/04/01 08:55:25;;;;;;;6.60;3.65;;;;;;;;;;4932410;28;20030;-64
2022/04/01 08:57:51;;;;;;;4.75;3.20;;;;;;;;;;4930981;28;20073;-65
2022/04/01 09:00:17;;;;;;;6.57;3.03;;;;;;;;;;4931127;28;20369;-65
2022/04/01 09:02:43;;;;;;;7.70;3.67;;;;;;;;;;4932602;28;20380;-65
2022/04/01 09:05:09;;;;;;;6.93;3.83;;;;;;;;;;4932636;28;20492;-65
2022/04/01 09:07:35;;;;;;;6.97;4.07;;;;;;;;;;4931286;28;20438;-65
2022/04/01 09:10:05;;;;;;;7.97;3.97;;;;;;;;;;4930973;28;20438;-65
2022/04/01 09:12:30;;;;;;;9.80;3.88;;;;;;;;;;4931532;28;20303;-64
2022/04/01 09:15:21;;;;;;;9.15;3.78;;;;;;;;;;5086691;27;20728;-65
2022/04/01 09:17:48;;;;;;;8.55;4.35;;;;;;;;;;5066214;28;20355;-65
2022/04/01 09:20:14;;;;;;;6.63;3.67;;;;;;;;;;5065916;28;20393;-65
2022/04/01 09:22:41;;;;;;;7.30;3.50;;;;;;;;;;5066773;28;20045;-65
2022/04/01 09:25:09;;;;;;;7.68;3.70;;;;;;;;;;5066408;28;20457;-64
2022/04/01 09:27:46;;;;;;;10.40;3.85;;;;;;;;;;5066888;28;20326;-65
2022/04/01 09:30:17;;;;;;;7.20;3.55;;;;;;;;;;5066337;28;20028;-64
2022/04/01 09:32:45;;;;;;;8.95;4.20;;;;;;;;;;5065822;28;20325;-64
2022/04/01 09:35:11;;;;;;;9.10;4.25;;;;;;;;;;5066899;28;20411;-65
2022/04/01 09:37:39;;;;;;;10.35;4.70;;;;;;;;;;5066136;28;20421;-65
2022/04/01 09:40:05;;;;;;;9.50;4.18;;;;;;;;;;5066244;28;20509;-64
2022/04/01 09:42:30;;;;;;;6.18;2.75;;;;;;;;;;5065818;28;20323;-64
2022/04/01 09:45:00;;;;;;;11.73;4.68;;;;;;;;;;5066247;28;20342;-65
2022/04/01 09:47:26;;;;;;;10.10;4.53;;;;;;;;;;5065764;28;20027;-65
2022/04/01 09:49:55;;;;;;;11.02;5.65;;;;;;;;;;5066046;28;20063;-65
2022/04/01 09:52:22;;;;;;;9.82;4.45;;;;;;;;;;5065838;28;20426;-65
2022/04/01 09:54:54;;;;;;;11.75;4.88;;;;;;;;;;5065237;28;20425;-65
2022/04/01 09:57:24;;;;;;;10.40;4.68;;;;;;;;;;5065826;28;20333;-64
2022/04/01 09:59:50;;;;;;;;;;;;;;;;;;5065964;28;20320;-65
2022/04/01 10:02:16;;;;;;;10.82;5.00;;;;;;;;;;5065777;28;20329;-65
2022/04/01 10:04:41;;;;;;;11.65;4.45;;;;;;;;;;5065468;28;20413;-64
2022/04/01 10:07:07;;;;;;;12.35;5.03;;;;;;;;;;5065805;28;20331;-65
2022/04/01 10:09:34;;;;;;;13.88;5.57;;;;;;;;;;5066542;28;20409;-64
2022/04/01 10:12:02;;;;;;;13.18;5.47;;;;;;;;;;5065617;28;20354;-64
2022/04/01 10:14:27;;;;;;;8.57;4.35;;;;;;;;;;5043067;28;20443;-64
2022/04/01 10:16:55;;;;;;;10.82;5.03;;;;;;;;;;5045352;28;20458;-65
2022/04/01 10:19:41;;;;;;;12.13;4.97;;;;;;;;;;5046165;28;20024;-65
2022/04/01 10:22:06;;;;;;;10.68;5.60;;;;;;;;;;5046141;28;20460;-65
2022/04/01 10:24:44;;;;;;;9.32;4.20;;;;;;;;;;5045660;28;20329;-64
2022/04/01 10:27:21;;;;;;;7.20;4.10;;;;;;;;;;5030145;28;20493;-65
2022/04/01 10:29:47;;;;;;;7.13;4.07;;;;;;;;;;5030316;28;20046;-65
2022/04/01 10:32:20;;;;;;;10.73;4.68;;;;;;;;;;5031367;28;20435;-64
2022/04/01 10:34:46;;;;;;;11.30;4.78;;;;;;;;;;5031542;28;20332;-65
2022/04/01 10:37:14;;;;;;;11.57;4.95;;;;;;;;;;5031815;28;20478;-65
2022/04/01 10:39:50;;;;;;;10.10;4.30;;;;;;;;;;5031159;28;20503;-64
2022/04/01 10:42:16;;;;;;;9.70;4.25;;;;;;;;;;5032999;28;20339;-64
2022/04/01 10:44:54;;;;;;;14.00;5.00;;;;;;;;;;5031765;28;20459;-64
2022/04/01 10:51:36;;;;;;;11.35;3.75;;;;;;;;;;5031304;28;20323;-65
2022/04/01 10:53:33;;;;;;;9.43;4.03;;;;;;;;;;5031774;28;20371;-64
2022/04/01 10:56:20;;;;;;;9.90;4.20;;;;;;;;;;5031008;28;20450;-64
2022/04/01 10:59:03;;;;;;;13.35;6.22;;;;;;;;;;5031113;28;20324;-64
2022/04/01 11:01:28;;;;;;;13.57;4.60;;;;;;;;;;5030811;28;20454;-65
2022/04/01 11:04:00;;;;;;;9.85;4.63;;;;;;;;;;5031043;28;20459;-66
2022/04/01 11:06:27;;;;;;;8.45;4.13;;;;;;;;;;5030991;28;20505;-64
2022/04/01 11:08:54;;;;;;;11.48;4.68;;;;;;;;;;5030966;28;20054;-64
2022/04/01 11:11:20;;;;;;;9.68;4.15;;;;;;;;;;5030546;28;20430;-64
2022/04/01 11:14:02;;;;;;;8.35;4.18;;;;;;;;;;5037549;28;20402;-64
2022/04/01 11:16:50;;;;;;;8.75;4.13;;;;;;;;;;5050831;28;20419;-64
2022/04/01 11:19:16;;;;;;;7.18;4.35;;;;;;;;;;5052287;28;20412;-68
2022/04/01 11:21:43;;;;;;;8.85;4.03;;;;;;;;;;5051787;28;20032;-64
2022/04/01 11:24:30;;;;;;;9.15;4.40;;;;;;;;;;5049917;28;20446;-64
2022/04/01 11:27:04;;;;;;;7.90;3.55;;;;;;;;;;5050462;28;20350;-64
2022/04/01 11:29:29;;;;;;;9.73;4.03;;;;;;;;;;5050648;28;20623;-64
2022/04/01 11:32:03;;;;;;;7.82;3.92;;;;;;;;;;5050059;28;20474;-64
2022/04/01 11:34:29;;;;;;;7.80;3.65;;;;;;;;;;5050713;28;20441;-63
2022/04/01 11:37:00;;;;;;;7.25;3.92;;;;;;;;;;5049195;28;20358;-64
2022/04/01 11:39:25;;;;;;;7.82;3.92;;;;;;;;;;5050555;28;20027;-65
2022/04/01 11:41:51;;;;;;;8.32;3.92;;;;;;;;;;5051343;28;20447;-65
2022/04/01 11:44:17;;;;;;;10.18;4.32;;;;;;;;;;5051077;28;20161;-63
2022/04/01 11:46:49;;;;;;;5.30;3.20;;;;;;;;;;5050511;28;20058;-65
2022/04/01 11:49:16;;;;;;;10.52;4.13;;;;;;;;;;5050187;28;20047;-64
2022/04/01 11:51:41;;;;;;;8.15;3.63;;;;;;;;;;5050222;28;20355;-65
2022/04/01 11:54:10;;;;;;;8.27;4.13;;;;;;;;;;5050381;28;20174;-64
2022/04/01 11:56:35;;;;;;;9.25;4.03;;;;;;;;;;5050152;28;20139;-65
2022/04/01 11:59:03;;;;;;;7.38;3.53;;;;;;;;;;5049799;28;20434;-64
2022/04/01 12:01:31;;;;;;;7.15;3.10;;;;;;;;;;5050016;28;20361;-64
2022/04/01 12:04:03;;;;;;;5.38;3.30;;;;;;;;;;5049587;28;20377;-64
2022/04/01 12:09:12;;;;;;;6.25;3.30;;;;;;;;;;5050576;28;20473;-65
2022/04/01 12:11:42;;;;;;;6.13;3.03;;;;;;;;;;5050118;28;20374;-65
2022/04/01 12:14:07;;;;;;;;;;;;;;;;;;5049570;28;20453;-64
2022/04/01 12:16:38;;;;;;;5.50;3.15;;;;;;;;;;5050001;28;20238;-65
2022/04/01 12:19:03;;;;;;;6.82;4.03;;;;;;;;;;5049526;28;20031;-65
2022/04/01 12:21:29;;;;;;;6.03;3.53;;;;;;;;;;5049931;28;20447;-66
2022/04/01 12:23:54;;;;;;;4.97;3.50;;;;;;;;;;5049539;28;20521;-65
2022/04/01 12:26:21;;;;;;;5.18;3.28;;;;;;;;;;5031392;28;20503;-67
2022/04/01 12:28:50;;;;;;;6.70;3.80;;;;;;;;;;5050821;28;20335;-65
2022/04/01 12:31:23;;;;;;;6.10;3.60;;;;;;;;;;5049014;28;20407;-65
2022/04/01 12:33:54;;;;;;;7.40;3.97;;;;;;;;;;5049755;28;20382;-64
2022/04/01 12:36:36;;;;;;;8.43;3.60;;;;;;;;;;5049202;28;20453;-65
2022/04/01 12:39:07;;;;;;;5.38;3.55;;;;;;;;;;5049315;28;20438;-65
2022/04/01 12:41:33;;;;;;;5.05;2.97;;;;;;;;;;5049058;28;20346;-65
2022/04/01 12:44:00;;;;;;;7.22;3.30;;;;;;;;;;5049062;28;20347;-65
2022/04/01 12:46:31;;;;;;;6.88;4.15;;;;;;;;;;5049295;28;20334;-65
2022/04/01 12:49:19;;;;;;;8.25;3.50;;;;;;;;;;5049497;28;20509;-64
2022/04/01 12:51:50;;;;;;;5.17;3.27;;;;;;;;;;5049361;28;20430;-64
2022/04/01 12:54:26;;;;;;;5.35;2.92;;;;;;;;;;5049053;28;20431;-64
2022/04/01 12:56:52;;;;;;;5.40;3.00;;;;;;;;;;5050283;28;20415;-64
2022/04/01 12:59:19;;;;;;;4.70;3.10;;;;;;;;;;5048734;28;20458;-65
2022/04/01 13:01:56;;;;;;;5.55;3.20;;;;;;;;;;5050556;28;20122;-66
2022/04/01 13:04:21;;;;;;;5.00;3.20;;;;;;;;;;5049340;28;20431;-64
2022/04/01 13:07:07;;;;;;;5.63;3.13;;;;;;;;;;5049105;28;20476;-64
2022/04/01 13:09:45;;;;;;;5.22;3.58;;;;;;;;;;5048436;28;20366;-64
2022/04/01 13:12:11;;;;;;;4.90;3.00;;;;;;;;;;5048490;28;20342;-65
2022/04/01 13:14:36;;;;;;;6.03;3.45;;;;;;;;;;5048344;28;20357;-66
2022/04/01 13:17:12;;;;;;;5.43;2.90;;;;;;;;;;5028154;28;20339;-65
2022/04/01 13:19:38;;;;;;;3.63;2.97;;;;;;;;;;5029629;28;20429;-64
2022/04/01 13:22:06;;;;;;;6.50;3.58;;;;;;;;;;5028163;28;20446;-65
2022/04/01 13:24:46;;;;;;;5.88;4.18;;;;;;;;;;5028369;28;20020;-66
2022/04/01 13:27:14;;;;;;;4.65;3.38;;;;;;;;;;5028558;28;20407;-64
2022/04/01 13:29:40;;;;;;;7.47;3.60;;;;;;;;;;5028690;28;20459;-65
2022/04/01 13:32:06;;;;;;;5.45;3.33;;;;;;;;;;5029493;28;20399;-65
2022/04/01 13:34:33;;;;;;;8.93;3.97;;;;;;;;;;5028517;28;20316;-65
2022/04/01 13:36:59;;;;;;;7.22;3.85;;;;;;;;;;5028301;28;20511;-65
2022/04/01 13:39:25;;;;;;;12.27;4.22;;;;;;;;;;5028442;28;20466;-64
2022/04/01 13:41:53;;;;;;;8.48;3.42;;;;;;;;;;5028254;28;20032;-65
2022/04/01 13:44:19;;;;;;;10.88;4.40;;;;;;;;;;5028584;28;20411;-66
2022/04/01 13:46:45;;;;;;;8.18;4.20;;;;;;;;;;5028429;28;20906;-65
2022/04/01 13:49:10;;;;;;;12.77;4.90;;;;;;;;;;5011084;28;20455;-65
2022/04/01 13:51:36;;;;;;;8.00;4.72;;;;;;;;;;5029759;28;20359;-65
2022/04/01 13:54:01;;;;;;;8.43;4.10;;;;;;;;;;5009786;28;20426;-65
2022/04/01 13:56:27;;;;;;;9.80;4.25;;;;;;;;;;5028106;28;20053;-65
2022/04/01 13:58:53;;;;;;;10.43;4.60;;;;;;;;;;5029855;28;20310;-65
2022/04/01 14:01:19;;;;;;;9.52;4.20;;;;;;;;;;5030770;28;20324;-65
2022/04/01 14:03:44;;;;;;;9.50;3.95;;;;;;;;;;5032479;28;20326;-65
2022/04/01 14:06:09;;;;;;;5.70;3.42;;;;;;;;;;5032081;28;20323;-65
2022/04/01 14:08:35;;;;;;;12.85;5.40;;;;;;;;;;5013669;28;20378;-65
2022/04/01 14:11:02;;;;;;;12.75;4.45;;;;;;;;;;5013639;28;20407;-64
2022/04/01 14:13:27;;;;;;;8.05;3.90;;;;;;;;;;5032036;28;20395;-64
2022/04/01 14:15:53;;;;;;;6.47;3.55;;;;;;;;;;5033056;28;20334;-65
2022/04/01 14:18:18;;;;;;;8.02;4.63;;;;;;;;;;5031726;28;20343;-65
2022/04/01 14:20:44;;;;;;;9.18;4.50;;;;;;;;;;5033019;28;20397;-65
2022/04/01 14:23:10;;;;;;;7.90;3.92;;;;;;;;;;5032190;28;20415;-66
2022/04/01 14:25:35;;;;;;;8.30;3.88;;;;;;;;;;5032765;28;20378;-64
2022/04/01 14:28:00;;;;;;;9.35;4.10;;;;;;;;;;5031257;28;20489;-64
2022/04/01 14:30:26;;;;;;;6.72;3.70;;;;;;;;;;5031430;28;20431;-65
2022/04/01 14:32:53;;;;;;;9.73;4.38;;;;;;;;;;5031520;28;20050;-65
2022/04/01 14:35:27;;;;;;;9.00;4.10;;;;;;;;;;5031333;28;20482;-65
2022/04/01 14:37:53;;;;;;;6.85;3.50;;;;;;;;;;5031508;28;20323;-65
2022/04/01 14:40:19;;;;;;;5.75;3.15;;;;;;;;;;5031251;28;20032;-65
2022/04/01 14:42:44;;;;;;;9.90;3.85;;;;;;;;;;5031340;28;20328;-64
2022/04/01 14:45:10;;;;;;;8.50;3.65;;;;;;;;;;5031114;28;20141;-64
2022/04/01 14:47:35;;;;;;;7.43;3.60;;;;;;;;;;5031146;28;20373;-65
2022/04/01 14:50:02;;;;;;;6.50;3.67;;;;;;;;;;5031158;28;20020;-66
2022/04/01 14:52:27;;;;;;;6.75;3.65;;;;;;;;;;5032433;28;20350;-65
2022/04/01 14:54:53;;;;;;;6.28;3.53;;;;;;;;;;5030866;28;20346;-64
2022/04/01 14:57:20;;;;;;;4.68;3.65;;;;;;;;;;4825347;28;5001151;-65
2022/04/01 14:59:46;;;;;;;6.75;3.30;;;;;;;;;;4990696;28;20379;-66
2022/04/01 15:02:11;;;;;;;6.78;3.50;;;;;;;;;;4992362;28;20029;-64